sensor_id;sensor_type;location;lat;lon;timestamp;pressure;altitude;pressure_sealevel;temperature;humidity
59877;BME280;45749;51.140;17.184;2023-06-22T00:00:52;100291.34;;;23.35;80.61
59877;BME280;45749;51.140;17.184;2023-06-22T00:03:18;100307.75;;;23.40;80.89
59877;BME280;45749;51.140;17.184;2023-06-22T00:05:45;100306.91;;;23.40;80.63
59877;BME280;45749;51.140;17.184;2023-06-22T00:08:10;100300.88;;;23.38;81.14
59877;BME280;45749;51.140;17.184;2023-06-22T00:10:35;100297.53;;;23.36;80.86
59877;BME280;45749;51.140;17.184;2023-06-22T00:13:01;100303.56;;;23.38;81.27
59877;BME280;45749;51.140;17.184;2023-06-22T00:15:26;100292.31;;;23.28;81.33
59877;BME280;45749;51.140;17.184;2023-06-22T00:17:52;100302.69;;;23.31;81.44
59877;BME280;45749;51.140;17.184;2023-06-22T00:20:17;100306.00;;;23.33;81.44
59877;BME280;45749;51.140;17.184;2023-06-22T00:22:46;100302.25;;;23.27;81.33
59877;BME280;45749;51.140;17.184;2023-06-22T00:25:13;100312.63;;;23.30;81.80
59877;BME280;45749;51.140;17.184;2023-06-22T00:27:38;100312.63;;;23.30;81.97
59877;BME280;45749;51.140;17.184;2023-06-22T00:30:04;100308.84;;;23.25;81.56
59877;BME280;45749;51.140;17.184;2023-06-22T00:32:29;100314.50;;;23.30;81.58
59877;BME280;45749;51.140;17.184;2023-06-22T00:34:54;100330.88;;;23.35;81.74
59877;BME280;45749;51.140;17.184;2023-06-22T00:37:20;100334.22;;;23.37;81.49
59877;BME280;45749;51.140;17.184;2023-06-22T00:39:48;100327.75;;;23.31;81.75
59877;BME280;45749;51.140;17.184;2023-06-22T00:42:13;100332.53;;;23.36;81.45
59877;BME280;45749;51.140;17.184;2023-06-22T00:44:38;100335.44;;;23.34;81.68
59877;BME280;45749;51.140;17.184;2023-06-22T00:47:04;100343.91;;;23.31;81.93
59877;BME280;45749;51.140;17.184;2023-06-22T00:49:29;100333.03;;;23.18;81.86
59877;BME280;45749;51.140;17.184;2023-06-22T00:51:56;100334.94;;;23.24;82.03
59877;BME280;45749;51.140;17.184;2023-06-22T00:54:22;100346.34;;;23.26;82.14
59877;BME280;45749;51.140;17.184;2023-06-22T00:56:56;100346.09;;;23.21;82.09
59877;BME280;45749;51.140;17.184;2023-06-22T00:59:23;100349.63;;;23.22;81.94
59877;BME280;45749;51.140;17.184;2023-06-22T01:01:49;100354.63;;;23.25;82.08
59877;BME280;45749;51.140;17.184;2023-06-22T01:04:15;100345.22;;;23.14;81.99
59877;BME280;45749;51.140;17.184;2023-06-22T01:07:21;100356.41;;;23.17;82.65
59877;BME280;45749;51.140;17.184;2023-06-22T01:09:51;100350.59;;;23.14;82.47
59877;BME280;45749;51.140;17.184;2023-06-22T01:12:19;100354.94;;;23.15;82.79
59877;BME280;45749;51.140;17.184;2023-06-22T01:15:04;100350.16;;;23.10;82.61
59877;BME280;45749;51.140;17.184;2023-06-22T01:17:33;100349.69;;;23.07;82.66
59877;BME280;45749;51.140;17.184;2023-06-22T01:20:02;100344.88;;;23.02;82.68
59877;BME280;45749;51.140;17.184;2023-06-22T01:22:31;100346.09;;;23.00;82.84
59877;BME280;45749;51.140;17.184;2023-06-22T01:25:10;100360.56;;;22.99;82.56
59877;BME280;45749;51.140;17.184;2023-06-22T01:27:40;100363.47;;;22.97;83.04
59877;BME280;45749;51.140;17.184;2023-06-22T01:30:13;100365.31;;;22.97;82.84
59877;BME280;45749;51.140;17.184;2023-06-22T01:32:41;100369.22;;;22.94;83.09
59877;BME280;45749;51.140;17.184;2023-06-22T01:35:08;100369.38;;;22.92;83.19
59877;BME280;45749;51.140;17.184;2023-06-22T01:37:35;100364.38;;;22.89;83.18
59877;BME280;45749;51.140;17.184;2023-06-22T01:40:02;100371.16;;;22.85;83.20
59877;BME280;45749;51.140;17.184;2023-06-22T01:42:31;100351.81;;;22.75;83.15
59877;BME280;45749;51.140;17.184;2023-06-22T01:44:57;100363.22;;;22.77;83.33
59877;BME280;45749;51.140;17.184;2023-06-22T01:47:24;100367.94;;;22.75;83.10
59877;BME280;45749;51.140;17.184;2023-06-22T01:49:50;100369.09;;;22.66;83.15
59877;BME280;45749;51.140;17.184;2023-06-22T01:52:17;100373.56;;;22.59;83.71
59877;BME280;45749;51.140;17.184;2023-06-22T01:54:43;100370.41;;;22.55;83.52
59877;BME280;45749;51.140;17.184;2023-06-22T01:57:08;100362.72;;;22.52;83.45
59877;BME280;45749;51.140;17.184;2023-06-22T01:59:39;100366.59;;;22.50;84.16
59877;BME280;45749;51.140;17.184;2023-06-22T02:02:10;100359.28;;;22.43;83.93
59877;BME280;45749;51.140;17.184;2023-06-22T02:04:44;100366.53;;;22.43;83.93
59877;BME280;45749;51.140;17.184;2023-06-22T02:07:14;100358.66;;;22.41;83.82
59877;BME280;45749;51.140;17.184;2023-06-22T02:09:44;100372.09;;;22.41;84.25
59877;BME280;45749;51.140;17.184;2023-06-22T02:12:12;100366.91;;;22.40;83.99
59877;BME280;45749;51.140;17.184;2023-06-22T02:14:39;100372.84;;;22.35;83.95
59877;BME280;45749;51.140;17.184;2023-06-22T02:17:05;100372.19;;;22.33;84.53
59877;BME280;45749;51.140;17.184;2023-06-22T02:19:36;100371.00;;;22.36;84.43
59877;BME280;45749;51.140;17.184;2023-06-22T02:22:01;100370.34;;;22.34;84.48
59877;BME280;45749;51.140;17.184;2023-06-22T02:24:26;100376.56;;;22.34;84.85
59877;BME280;45749;51.140;17.184;2023-06-22T02:26:52;100367.19;;;22.30;84.55
59877;BME280;45749;51.140;17.184;2023-06-22T02:29:17;100380.63;;;22.30;85.09
59877;BME280;45749;51.140;17.184;2023-06-22T02:31:43;100367.31;;;22.22;84.87
59877;BME280;45749;51.140;17.184;2023-06-22T02:34:08;100364.16;;;22.18;84.98
59877;BME280;45749;51.140;17.184;2023-06-22T02:36:33;100368.88;;;22.16;85.26
59877;BME280;45749;51.140;17.184;2023-06-22T02:38:59;100371.25;;;22.11;85.01
59877;BME280;45749;51.140;17.184;2023-06-22T02:41:26;100368.94;;;22.08;84.90
59877;BME280;45749;51.140;17.184;2023-06-22T02:43:52;100373.00;;;22.04;85.10
59877;BME280;45749;51.140;17.184;2023-06-22T02:46:17;100369.03;;;22.00;85.36
59877;BME280;45749;51.140;17.184;2023-06-22T02:48:42;100369.22;;;21.98;85.33
59877;BME280;45749;51.140;17.184;2023-06-22T02:51:08;100367.91;;;21.94;85.36
59877;BME280;45749;51.140;17.184;2023-06-22T02:53:34;100374.13;;;21.95;85.38
59877;BME280;45749;51.140;17.184;2023-06-22T02:56:01;100368.09;;;21.93;85.46
59877;BME280;45749;51.140;17.184;2023-06-22T02:58:28;100365.56;;;21.91;85.50
59877;BME280;45749;51.140;17.184;2023-06-22T03:00:53;100378.38;;;21.89;85.44
59877;BME280;45749;51.140;17.184;2023-06-22T03:03:19;100373.38;;;21.86;85.37
59877;BME280;45749;51.140;17.184;2023-06-22T03:05:45;100370.84;;;21.85;85.38
59877;BME280;45749;51.140;17.184;2023-06-22T03:08:10;100368.06;;;21.78;85.36
59877;BME280;45749;51.140;17.184;2023-06-22T03:10:36;100365.56;;;21.76;85.65
59877;BME280;45749;51.140;17.184;2023-06-22T03:13:01;100370.47;;;21.73;85.86
59877;BME280;45749;51.140;17.184;2023-06-22T03:15:26;100375.19;;;21.71;86.06
59877;BME280;45749;51.140;17.184;2023-06-22T03:17:54;100368.97;;;21.56;85.97
59877;BME280;45749;51.140;17.184;2023-06-22T03:20:20;100385.09;;;21.56;86.39
59877;BME280;45749;51.140;17.184;2023-06-22T03:22:45;100386.91;;;21.55;86.55
59877;BME280;45749;51.140;17.184;2023-06-22T03:25:10;100396.81;;;21.54;86.64
59877;BME280;45749;51.140;17.184;2023-06-22T03:27:38;100402.53;;;21.51;86.66
59877;BME280;45749;51.140;17.184;2023-06-22T03:30:05;100408.03;;;21.58;86.56
59877;BME280;45749;51.140;17.184;2023-06-22T03:32:30;100408.69;;;21.60;86.56
59877;BME280;45749;51.140;17.184;2023-06-22T03:34:56;100413.41;;;21.58;86.96
59877;BME280;45749;51.140;17.184;2023-06-22T03:37:24;100416.38;;;21.63;87.12
59877;BME280;45749;51.140;17.184;2023-06-22T03:39:51;100412.69;;;21.64;86.96
59877;BME280;45749;51.140;17.184;2023-06-22T03:42:16;100409.88;;;21.58;86.96
59877;BME280;45749;51.140;17.184;2023-06-22T03:44:41;100418.88;;;21.65;87.06
59877;BME280;45749;51.140;17.184;2023-06-22T03:47:07;100422.22;;;21.67;86.94
59877;BME280;45749;51.140;17.184;2023-06-22T03:49:33;100429.09;;;21.69;87.65
59877;BME280;45749;51.140;17.184;2023-06-22T03:51:59;100432.59;;;21.70;87.44
59877;BME280;45749;51.140;17.184;2023-06-22T03:54:25;100440.81;;;21.68;87.85
59877;BME280;45749;51.140;17.184;2023-06-22T03:56:50;100434.81;;;21.66;87.75
59877;BME280;45749;51.140;17.184;2023-06-22T03:59:15;100431.94;;;21.68;87.59
59877;BME280;45749;51.140;17.184;2023-06-22T04:01:40;100440.06;;;21.60;88.03
59877;BME280;45749;51.140;17.184;2023-06-22T04:04:06;100440.25;;;21.58;88.32
59877;BME280;45749;51.140;17.184;2023-06-22T04:06:31;100443.59;;;21.60;88.27
59877;BME280;45749;51.140;17.184;2023-06-22T04:08:56;100442.41;;;21.63;88.28
59877;BME280;45749;51.140;17.184;2023-06-22T04:11:21;100442.56;;;21.61;88.58
59877;BME280;45749;51.140;17.184;2023-06-22T04:13:47;100445.09;;;21.63;88.68
59877;BME280;45749;51.140;17.184;2023-06-22T04:16:14;100449.16;;;21.59;88.95
59877;BME280;45749;51.140;17.184;2023-06-22T04:18:39;100439.13;;;21.52;88.80
59877;BME280;45749;51.140;17.184;2023-06-22T04:21:04;100444.31;;;21.54;89.02
59877;BME280;45749;51.140;17.184;2023-06-22T04:23:29;100449.69;;;21.54;89.13
59877;BME280;45749;51.140;17.184;2023-06-22T04:25:55;100455.88;;;21.54;89.26
59877;BME280;45749;51.140;17.184;2023-06-22T04:28:21;100458.22;;;21.58;89.72
59877;BME280;45749;51.140;17.184;2023-06-22T04:30:47;100457.56;;;21.56;89.56
59877;BME280;45749;51.140;17.184;2023-06-22T04:33:14;100460.72;;;21.59;90.03
59877;BME280;45749;51.140;17.184;2023-06-22T04:35:39;100454.88;;;21.56;90.41
59877;BME280;45749;51.140;17.184;2023-06-22T04:38:06;100450.72;;;21.53;90.20
59877;BME280;45749;51.140;17.184;2023-06-22T04:40:32;100472.31;;;21.60;90.37
59877;BME280;45749;51.140;17.184;2023-06-22T04:42:57;100464.88;;;21.62;90.24
59877;BME280;45749;51.140;17.184;2023-06-22T04:45:25;100461.56;;;21.60;90.51
59877;BME280;45749;51.140;17.184;2023-06-22T04:47:51;100462.88;;;21.64;90.92
59877;BME280;45749;51.140;17.184;2023-06-22T04:50:16;100469.25;;;21.63;90.11
59877;BME280;45749;51.140;17.184;2023-06-22T04:52:42;100468.91;;;21.66;91.25
59877;BME280;45749;51.140;17.184;2023-06-22T04:55:07;100465.84;;;21.69;90.69
59877;BME280;45749;51.140;17.184;2023-06-22T04:57:33;100469.19;;;21.71;91.14
59877;BME280;45749;51.140;17.184;2023-06-22T04:59:59;100467.78;;;21.75;91.29
59877;BME280;45749;51.140;17.184;2023-06-22T05:02:37;100472.81;;;21.78;91.18
59877;BME280;45749;51.140;17.184;2023-06-22T05:05:03;100471.97;;;21.77;91.41
59877;BME280;45749;51.140;17.184;2023-06-22T05:07:35;100473.13;;;21.83;91.47
59877;BME280;45749;51.140;17.184;2023-06-22T05:10:01;100470.06;;;21.86;91.74
59877;BME280;45749;51.140;17.184;2023-06-22T05:12:28;100476.28;;;21.87;91.66
59877;BME280;45749;51.140;17.184;2023-06-22T05:14:54;100472.19;;;21.91;92.04
59877;BME280;45749;51.140;17.184;2023-06-22T05:17:19;100465.28;;;21.96;91.84
59877;BME280;45749;51.140;17.184;2023-06-22T05:19:45;100462.38;;;21.98;91.83
59877;BME280;45749;51.140;17.184;2023-06-22T05:22:14;100452.03;;;21.95;91.88
59877;BME280;45749;51.140;17.184;2023-06-22T05:24:40;100477.41;;;22.07;92.21
59877;BME280;45749;51.140;17.184;2023-06-22T05:27:06;100477.06;;;22.10;91.93
59877;BME280;45749;51.140;17.184;2023-06-22T05:29:31;100459.84;;;22.05;91.78
59877;BME280;45749;51.140;17.184;2023-06-22T05:31:56;100456.75;;;22.08;91.76
59877;BME280;45749;51.140;17.184;2023-06-22T05:34:21;100462.09;;;22.16;91.56
59877;BME280;45749;51.140;17.184;2023-06-22T05:36:47;100468.59;;;22.21;91.08
59877;BME280;45749;51.140;17.184;2023-06-22T05:39:13;100468.75;;;22.20;91.23
59877;BME280;45749;51.140;17.184;2023-06-22T05:41:39;100468.03;;;22.26;90.97
59877;BME280;45749;51.140;17.184;2023-06-22T05:44:04;100471.66;;;22.33;90.51
59877;BME280;45749;51.140;17.184;2023-06-22T05:46:30;100469.63;;;22.35;90.24
59877;BME280;45749;51.140;17.184;2023-06-22T05:48:55;100459.59;;;22.29;89.79
59877;BME280;45749;51.140;17.184;2023-06-22T05:51:20;100469.25;;;22.38;89.66
59877;BME280;45749;51.140;17.184;2023-06-22T05:53:45;100461.81;;;22.40;89.56
59877;BME280;45749;51.140;17.184;2023-06-22T05:56:14;100471.84;;;22.46;89.05
59877;BME280;45749;51.140;17.184;2023-06-22T05:58:40;100481.41;;;22.49;89.37
59877;BME280;45749;51.140;17.184;2023-06-22T06:01:05;100474.53;;;22.46;89.27
59877;BME280;45749;51.140;17.184;2023-06-22T06:03:30;100479.81;;;22.55;88.77
59877;BME280;45749;51.140;17.184;2023-06-22T06:05:56;100467.38;;;22.54;88.57
59877;BME280;45749;51.140;17.184;2023-06-22T06:08:21;100473.22;;;22.57;88.37
59877;BME280;45749;51.140;17.184;2023-06-22T06:10:47;100482.41;;;22.63;88.75
59877;BME280;45749;51.140;17.184;2023-06-22T06:13:12;100468.59;;;22.66;88.56
59877;BME280;45749;51.140;17.184;2023-06-22T06:15:37;100476.75;;;22.73;88.90
59877;BME280;45749;51.140;17.184;2023-06-22T06:18:03;100474.06;;;22.73;88.21
59877;BME280;45749;51.140;17.184;2023-06-22T06:20:30;100478.91;;;22.77;88.43
59877;BME280;45749;51.140;17.184;2023-06-22T06:22:56;100482.03;;;22.81;87.91
59877;BME280;45749;51.140;17.184;2023-06-22T06:25:22;100490.81;;;22.89;88.00
59877;BME280;45749;51.140;17.184;2023-06-22T06:27:48;100482.88;;;22.96;87.91
59877;BME280;45749;51.140;17.184;2023-06-22T06:30:16;100488.53;;;23.01;87.66
59877;BME280;45749;51.140;17.184;2023-06-22T06:32:42;100499.53;;;23.06;87.43
59877;BME280;45749;51.140;17.184;2023-06-22T06:35:10;100501.69;;;23.11;87.58
59877;BME280;45749;51.140;17.184;2023-06-22T06:37:38;100503.19;;;23.13;87.40
59877;BME280;45749;51.140;17.184;2023-06-22T06:40:07;100496.56;;;23.16;87.16
59877;BME280;45749;51.140;17.184;2023-06-22T06:42:35;100493.09;;;23.22;87.23
59877;BME280;45749;51.140;17.184;2023-06-22T06:45:02;100499.59;;;23.28;86.74
59877;BME280;45749;51.140;17.184;2023-06-22T06:47:28;100496.72;;;23.29;86.54
59877;BME280;45749;51.140;17.184;2023-06-22T06:49:53;100487.19;;;23.27;86.58
59877;BME280;45749;51.140;17.184;2023-06-22T06:52:18;100496.59;;;23.37;86.46
59877;BME280;45749;51.140;17.184;2023-06-22T06:54:45;100494.16;;;23.42;86.37
59877;BME280;45749;51.140;17.184;2023-06-22T06:57:10;100496.66;;;23.44;86.71
59877;BME280;45749;51.140;17.184;2023-06-22T06:59:38;100485.31;;;23.49;85.98
59877;BME280;45749;51.140;17.184;2023-06-22T07:02:04;100500.53;;;23.56;85.95
59877;BME280;45749;51.140;17.184;2023-06-22T07:04:30;100505.34;;;23.61;85.54
59877;BME280;45749;51.140;17.184;2023-06-22T07:06:55;100496.16;;;23.55;85.64
59877;BME280;45749;51.140;17.184;2023-06-22T07:09:20;100511.16;;;23.64;85.17
59877;BME280;45749;51.140;17.184;2023-06-22T07:11:46;100511.47;;;23.70;85.32
59877;BME280;45749;51.140;17.184;2023-06-22T07:14:11;100503.91;;;23.65;85.41
59877;BME280;45749;51.140;17.184;2023-06-22T07:16:36;100504.66;;;23.74;85.01
59877;BME280;45749;51.140;17.184;2023-06-22T07:19:02;100507.41;;;23.80;85.09
59877;BME280;45749;51.140;17.184;2023-06-22T07:21:27;100510.09;;;23.80;84.64
59877;BME280;45749;51.140;17.184;2023-06-22T07:23:52;100521.13;;;23.85;84.50
59877;BME280;45749;51.140;17.184;2023-06-22T07:26:19;100512.88;;;23.87;84.04
59877;BME280;45749;51.140;17.184;2023-06-22T07:28:44;100527.22;;;23.94;83.84
59877;BME280;45749;51.140;17.184;2023-06-22T07:31:09;100523.97;;;23.99;83.85
59877;BME280;45749;51.140;17.184;2023-06-22T07:33:35;100527.94;;;24.03;83.42
59877;BME280;45749;51.140;17.184;2023-06-22T07:36:00;100530.41;;;24.04;83.46
59877;BME280;45749;51.140;17.184;2023-06-22T07:38:26;100526.72;;;24.05;83.73
59877;BME280;45749;51.140;17.184;2023-06-22T07:40:51;100526.78;;;24.12;83.94
59877;BME280;45749;51.140;17.184;2023-06-22T07:43:18;100530.78;;;24.23;84.89
59877;BME280;45749;51.140;17.184;2023-06-22T07:45:49;100533.53;;;24.29;83.46
59877;BME280;45749;51.140;17.184;2023-06-22T07:48:19;100504.00;;;24.21;82.91
59877;BME280;45749;51.140;17.184;2023-06-22T07:50:45;100520.09;;;24.36;82.74
59877;BME280;45749;51.140;17.184;2023-06-22T07:53:10;100517.00;;;24.39;83.27
59877;BME280;45749;51.140;17.184;2023-06-22T07:55:35;100516.66;;;24.42;83.13
59877;BME280;45749;51.140;17.184;2023-06-22T07:58:01;100520.63;;;24.46;82.57
59877;BME280;45749;51.140;17.184;2023-06-22T08:00:26;100522.31;;;24.54;82.40
59877;BME280;45749;51.140;17.184;2023-06-22T08:02:51;100520.91;;;24.58;82.72
59877;BME280;45749;51.140;17.184;2023-06-22T08:05:16;100518.81;;;24.60;83.07
59877;BME280;45749;51.140;17.184;2023-06-22T08:07:42;100519.13;;;24.72;82.31
59877;BME280;45749;51.140;17.184;2023-06-22T08:10:11;100509.97;;;24.73;82.33
59877;BME280;45749;51.140;17.184;2023-06-22T08:12:36;100506.50;;;24.79;82.25
59877;BME280;45749;51.140;17.184;2023-06-22T08:15:02;100511.91;;;24.86;82.19
59877;BME280;45749;51.140;17.184;2023-06-22T08:17:28;100512.13;;;24.91;82.22
59877;BME280;45749;51.140;17.184;2023-06-22T08:19:53;100507.63;;;24.98;80.87
59877;BME280;45749;51.140;17.184;2023-06-22T08:22:18;100504.06;;;24.97;80.92
59877;BME280;45749;51.140;17.184;2023-06-22T08:24:44;100499.53;;;24.98;81.23
59877;BME280;45749;51.140;17.184;2023-06-22T08:27:10;100505.78;;;25.05;81.51
59877;BME280;45749;51.140;17.184;2023-06-22T08:29:38;100491.22;;;25.06;81.22
59877;BME280;45749;51.140;17.184;2023-06-22T08:32:04;100494.81;;;25.13;81.06
59877;BME280;45749;51.140;17.184;2023-06-22T08:34:29;100501.91;;;25.21;81.31
59877;BME280;45749;51.140;17.184;2023-06-22T08:36:55;100497.38;;;25.28;80.18
59877;BME280;45749;51.140;17.184;2023-06-22T08:39:20;100488.44;;;25.27;79.92
59877;BME280;45749;51.140;17.184;2023-06-22T08:41:47;100481.19;;;25.35;80.61
59877;BME280;45749;51.140;17.184;2023-06-22T08:44:12;100472.25;;;25.41;79.93
59877;BME280;45749;51.140;17.184;2023-06-22T08:46:38;100467.88;;;25.46;80.42
59877;BME280;45749;51.140;17.184;2023-06-22T08:49:06;100473.72;;;25.57;79.85
59877;BME280;45749;51.140;17.184;2023-06-22T08:51:32;100473.53;;;25.58;78.92
59877;BME280;45749;51.140;17.184;2023-06-22T08:53:57;100467.91;;;25.60;79.14
59877;BME280;45749;51.140;17.184;2023-06-22T08:56:23;100456.69;;;25.63;79.12
59877;BME280;45749;51.140;17.184;2023-06-22T08:58:48;100464.38;;;25.72;78.69
59877;BME280;45749;51.140;17.184;2023-06-22T09:01:13;100467.31;;;25.78;78.43
59877;BME280;45749;51.140;17.184;2023-06-22T09:03:40;100473.56;;;25.85;77.82
59877;BME280;45749;51.140;17.184;2023-06-22T09:06:05;100470.03;;;25.91;77.13
59877;BME280;45749;51.140;17.184;2023-06-22T09:08:31;100472.75;;;25.98;75.75
59877;BME280;45749;51.140;17.184;2023-06-22T09:10:57;100481.91;;;26.03;76.33
59877;BME280;45749;51.140;17.184;2023-06-22T09:13:22;100480.03;;;26.10;76.37
59877;BME280;45749;51.140;17.184;2023-06-22T09:15:47;100468.97;;;26.12;75.06
59877;BME280;45749;51.140;17.184;2023-06-22T09:18:13;100472.31;;;26.20;76.50
59877;BME280;45749;51.140;17.184;2023-06-22T09:20:39;100476.63;;;26.35;73.75
59877;BME280;45749;51.140;17.184;2023-06-22T09:23:04;100473.09;;;26.41;75.24
59877;BME280;45749;51.140;17.184;2023-06-22T09:25:29;100481.41;;;26.46;74.33
59877;BME280;45749;51.140;17.184;2023-06-22T09:27:55;100482.25;;;26.47;73.94
59877;BME280;45749;51.140;17.184;2023-06-22T09:30:22;100479.97;;;26.50;73.75
59877;BME280;45749;51.140;17.184;2023-06-22T09:32:47;100484.53;;;26.56;71.61
59877;BME280;45749;51.140;17.184;2023-06-22T09:35:12;100472.91;;;26.56;72.86
59877;BME280;45749;51.140;17.184;2023-06-22T09:37:39;100480.38;;;26.60;73.44
59877;BME280;45749;51.140;17.184;2023-06-22T09:40:05;100467.03;;;26.65;74.24
59877;BME280;45749;51.140;17.184;2023-06-22T09:42:35;100481.53;;;26.84;73.66
59877;BME280;45749;51.140;17.184;2023-06-22T09:45:00;100464.22;;;26.92;73.32
59877;BME280;45749;51.140;17.184;2023-06-22T09:47:27;100452.75;;;26.97;72.54
59877;BME280;45749;51.140;17.184;2023-06-22T09:49:52;100465.16;;;27.11;72.01
59877;BME280;45749;51.140;17.184;2023-06-22T09:52:19;100459.13;;;27.09;70.40
59877;BME280;45749;51.140;17.184;2023-06-22T09:54:44;100458.47;;;27.20;71.16
59877;BME280;45749;51.140;17.184;2023-06-22T09:57:10;100462.16;;;27.32;69.37
59877;BME280;45749;51.140;17.184;2023-06-22T09:59:35;100472.72;;;27.41;69.95
59877;BME280;45749;51.140;17.184;2023-06-22T10:02:00;100465.56;;;27.53;71.38
59877;BME280;45749;51.140;17.184;2023-06-22T10:04:26;100473.81;;;27.65;69.90
59877;BME280;45749;51.140;17.184;2023-06-22T10:06:51;100467.53;;;27.71;69.35
59877;BME280;45749;51.140;17.184;2023-06-22T10:09:17;100471.66;;;27.73;69.02
59877;BME280;45749;51.140;17.184;2023-06-22T10:11:42;100459.16;;;27.72;68.50
59877;BME280;45749;51.140;17.184;2023-06-22T10:14:07;100465.84;;;27.70;68.43
59877;BME280;45749;51.140;17.184;2023-06-22T10:16:33;100467.06;;;27.74;68.22
59877;BME280;45749;51.140;17.184;2023-06-22T10:19:00;100459.78;;;27.74;67.22
59877;BME280;45749;51.140;17.184;2023-06-22T10:21:26;100468.34;;;27.78;67.63
59877;BME280;45749;51.140;17.184;2023-06-22T10:23:53;100458.06;;;27.80;68.00
59877;BME280;45749;51.140;17.184;2023-06-22T10:26:19;100463.00;;;27.90;67.55
59877;BME280;45749;51.140;17.184;2023-06-22T10:28:44;100457.31;;;27.98;67.39
59877;BME280;45749;51.140;17.184;2023-06-22T10:31:09;100439.28;;;28.03;68.16
59877;BME280;45749;51.140;17.184;2023-06-22T10:33:34;100441.22;;;28.21;67.79
59877;BME280;45749;51.140;17.184;2023-06-22T10:36:00;100437.75;;;28.33;67.23
59877;BME280;45749;51.140;17.184;2023-06-22T10:38:25;100428.66;;;28.45;66.79
59877;BME280;45749;51.140;17.184;2023-06-22T10:40:50;100424.31;;;28.44;65.21
59877;BME280;45749;51.140;17.184;2023-06-22T10:43:16;100421.34;;;28.46;65.66
59877;BME280;45749;51.140;17.184;2023-06-22T10:45:41;100422.34;;;28.51;66.25
59877;BME280;45749;51.140;17.184;2023-06-22T10:48:06;100410.41;;;28.52;64.92
59877;BME280;45749;51.140;17.184;2023-06-22T10:50:32;100411.19;;;28.60;63.28
59877;BME280;45749;51.140;17.184;2023-06-22T10:52:57;100403.63;;;28.62;63.51
59877;BME280;45749;51.140;17.184;2023-06-22T10:55:23;100410.66;;;28.69;61.95
59877;BME280;45749;51.140;17.184;2023-06-22T10:57:48;100407.00;;;28.75;61.83
59877;BME280;45749;51.140;17.184;2023-06-22T11:00:15;100415.66;;;28.84;62.37
59877;BME280;45749;51.140;17.184;2023-06-22T11:02:40;100410.16;;;28.91;62.03
59877;BME280;45749;51.140;17.184;2023-06-22T11:05:06;100402.34;;;28.94;62.40
59877;BME280;45749;51.140;17.184;2023-06-22T11:07:31;100394.56;;;28.98;62.71
59877;BME280;45749;51.140;17.184;2023-06-22T11:09:58;100388.50;;;29.03;62.34
59877;BME280;45749;51.140;17.184;2023-06-22T11:12:23;100398.25;;;29.22;62.09
59877;BME280;45749;51.140;17.184;2023-06-22T11:14:48;100388.56;;;29.26;62.10
59877;BME280;45749;51.140;17.184;2023-06-22T11:17:16;100395.66;;;29.27;61.36
59877;BME280;45749;51.140;17.184;2023-06-22T11:19:42;100391.03;;;29.28;61.13
59877;BME280;45749;51.140;17.184;2023-06-22T11:22:07;100393.44;;;29.36;59.68
59877;BME280;45749;51.140;17.184;2023-06-22T11:24:32;100386.56;;;29.33;60.21
59877;BME280;45749;51.140;17.184;2023-06-22T11:26:58;100398.16;;;29.40;61.65
59877;BME280;45749;51.140;17.184;2023-06-22T11:29:23;100399.94;;;29.47;61.18
59877;BME280;45749;51.140;17.184;2023-06-22T11:31:49;100398.19;;;29.52;60.47
59877;BME280;45749;51.140;17.184;2023-06-22T11:34:14;100389.06;;;29.47;59.56
59877;BME280;45749;51.140;17.184;2023-06-22T11:36:39;100398.41;;;29.51;59.33
59877;BME280;45749;51.140;17.184;2023-06-22T11:39:05;100378.91;;;29.42;59.50
59877;BME280;45749;51.140;17.184;2023-06-22T11:41:31;100379.16;;;29.52;59.56
59877;BME280;45749;51.140;17.184;2023-06-22T11:43:56;100391.72;;;29.65;59.72
59877;BME280;45749;51.140;17.184;2023-06-22T11:46:21;100379.78;;;29.66;60.15
59877;BME280;45749;51.140;17.184;2023-06-22T11:48:47;100382.13;;;29.74;59.90
59877;BME280;45749;51.140;17.184;2023-06-22T11:51:12;100376.47;;;29.76;58.92
59877;BME280;45749;51.140;17.184;2023-06-22T11:53:38;100367.97;;;29.72;58.27
59877;BME280;45749;51.140;17.184;2023-06-22T11:56:03;100388.53;;;29.80;57.93
59877;BME280;45749;51.140;17.184;2023-06-22T11:58:34;100378.38;;;29.75;59.52
59877;BME280;45749;51.140;17.184;2023-06-22T12:01:02;100377.31;;;29.76;58.78
59877;BME280;45749;51.140;17.184;2023-06-22T12:03:27;100378.13;;;29.77;56.97
59877;BME280;45749;51.140;17.184;2023-06-22T12:05:52;100367.47;;;29.63;57.89
59877;BME280;45749;51.140;17.184;2023-06-22T12:08:18;100373.88;;;29.69;56.64
59877;BME280;45749;51.140;17.184;2023-06-22T12:10:44;100360.16;;;29.64;57.05
59877;BME280;45749;51.140;17.184;2023-06-22T12:13:11;100368.06;;;29.77;58.08
59877;BME280;45749;51.140;17.184;2023-06-22T12:15:37;100360.50;;;29.79;57.81
59877;BME280;45749;51.140;17.184;2023-06-22T12:18:02;100363.47;;;29.89;58.48
59877;BME280;45749;51.140;17.184;2023-06-22T12:20:28;100363.59;;;29.95;57.14
59877;BME280;45749;51.140;17.184;2023-06-22T12:22:53;100346.06;;;29.90;56.13
59877;BME280;45749;51.140;17.184;2023-06-22T12:25:21;100349.97;;;29.95;56.39
59877;BME280;45749;51.140;17.184;2023-06-22T12:27:47;100350.22;;;29.93;55.74
59877;BME280;45749;51.140;17.184;2023-06-22T12:30:12;100353.75;;;29.94;56.17
59877;BME280;45749;51.140;17.184;2023-06-22T12:32:37;100351.63;;;29.84;55.38
59877;BME280;45749;51.140;17.184;2023-06-22T12:35:03;100356.72;;;29.80;54.80